sensor_id;sensor_type;location;lat;lon;timestamp;temperature;humidity
28761;DHT22;15917;50.014;8.352;2023-05-10T00:00:51;14.10;99.90
28761;DHT22;15917;50.014;8.352;2023-05-10T00:03:16;14.10;99.90
28761;DHT22;15917;50.014;8.352;2023-05-10T00:05:42;14.10;99.90
28761;DHT22;15917;50.014;8.352;2023-05-10T00:08:08;14.10;99.90
28761;DHT22;15917;50.014;8.352;2023-05-10T00:10:34;14.10;99.90
28761;DHT22;15917;50.014;8.352;2023-05-10T00:12:59;14.00;99.90
28761;DHT22;15917;50.014;8.352;2023-05-10T00:15:25;14.00;99.90
28761;DHT22;15917;50.014;8.352;2023-05-10T00:17:51;14.00;99.90
28761;DHT22;15917;50.014;8.352;2023-05-10T00:20:16;14.00;99.90
28761;DHT22;15917;50.014;8.352;2023-05-10T00:22:42;14.00;99.90
28761;DHT22;15917;50.014;8.352;2023-05-10T00:25:08;14.00;99.90
28761;DHT22;15917;50.014;8.352;2023-05-10T00:27:34;14.00;99.90
28761;DHT22;15917;50.014;8.352;2023-05-10T00:30:00;14.00;99.90
28761;DHT22;15917;50.014;8.352;2023-05-10T00:32:25;13.90;99.90
28761;DHT22;15917;50.014;8.352;2023-05-10T00:34:51;13.90;99.90
28761;DHT22;15917;50.014;8.352;2023-05-10T00:37:17;13.90;99.90
28761;DHT22;15917;50.014;8.352;2023-05-10T00:39:42;13.80;99.90
28761;DHT22;15917;50.014;8.352;2023-05-10T00:42:08;13.80;99.90
28761;DHT22;15917;50.014;8.352;2023-05-10T00:44:34;13.80;99.90
28761;DHT22;15917;50.014;8.352;2023-05-10T00:46:59;13.70;99.90
28761;DHT22;15917;50.014;8.352;2023-05-10T00:49:25;13.70;99.90
28761;DHT22;15917;50.014;8.352;2023-05-10T00:54:31;13.70;99.90
28761;DHT22;15917;50.014;8.352;2023-05-10T00:56:57;13.70;99.90
28761;DHT22;15917;50.014;8.352;2023-05-10T00:59:24;13.70;99.90
28761;DHT22;15917;50.014;8.352;2023-05-10T01:01:50;13.70;99.90
28761;DHT22;15917;50.014;8.352;2023-05-10T01:04:17;13.70;99.90
28761;DHT22;15917;50.014;8.352;2023-05-10T01:06:43;13.70;99.90
28761;DHT22;15917;50.014;8.352;2023-05-10T01:09:09;13.70;99.90
28761;DHT22;15917;50.014;8.352;2023-05-10T01:11:37;13.70;99.90
28761;DHT22;15917;50.014;8.352;2023-05-10T01:14:03;13.70;99.90
28761;DHT22;15917;50.014;8.352;2023-05-10T01:16:32;13.70;99.90
28761;DHT22;15917;50.014;8.352;2023-05-10T01:18:58;13.70;99.90
28761;DHT22;15917;50.014;8.352;2023-05-10T01:21:43;13.70;99.90
28761;DHT22;15917;50.014;8.352;2023-05-10T01:27:14;13.60;99.90
28761;DHT22;15917;50.014;8.352;2023-05-10T01:35:43;13.60;99.90
28761;DHT22;15917;50.014;8.352;2023-05-10T01:38:29;13.60;99.90
28761;DHT22;15917;50.014;8.352;2023-05-10T01:46:43;13.60;99.90
28761;DHT22;15917;50.014;8.352;2023-05-10T01:49:13;13.60;99.90
28761;DHT22;15917;50.014;8.352;2023-05-10T01:51:50;13.60;99.90
28761;DHT22;15917;50.014;8.352;2023-05-10T01:54:20;13.60;99.90
28761;DHT22;15917;50.014;8.352;2023-05-10T01:56:50;13.70;99.90
28761;DHT22;15917;50.014;8.352;2023-05-10T01:59:19;13.70;99.90
28761;DHT22;15917;50.014;8.352;2023-05-10T02:01:46;13.70;99.90
28761;DHT22;15917;50.014;8.352;2023-05-10T02:04:16;13.60;99.90
28761;DHT22;15917;50.014;8.352;2023-05-10T02:06:43;13.60;99.90
28761;DHT22;15917;50.014;8.352;2023-05-10T02:09:11;13.70;99.90
28761;DHT22;15917;50.014;8.352;2023-05-10T02:11:39;13.70;99.90
28761;DHT22;15917;50.014;8.352;2023-05-10T02:14:09;13.70;99.90
28761;DHT22;15917;50.014;8.352;2023-05-10T02:16:38;13.70;99.90
28761;DHT22;15917;50.014;8.352;2023-05-10T02:19:05;13.60;99.90
28761;DHT22;15917;50.014;8.352;2023-05-10T02:21:32;13.70;99.90
28761;DHT22;15917;50.014;8.352;2023-05-10T02:24:01;13.70;99.90
28761;DHT22;15917;50.014;8.352;2023-05-10T02:26:29;13.70;99.90
28761;DHT22;15917;50.014;8.352;2023-05-10T02:28:57;13.70;99.90
28761;DHT22;15917;50.014;8.352;2023-05-10T02:31:23;13.70;99.90
28761;DHT22;15917;50.014;8.352;2023-05-10T02:33:50;13.60;99.90
28761;DHT22;15917;50.014;8.352;2023-05-10T02:36:17;13.60;99.90
28761;DHT22;15917;50.014;8.352;2023-05-10T02:38:44;13.60;99.90
28761;DHT22;15917;50.014;8.352;2023-05-10T02:41:12;13.60;99.90
28761;DHT22;15917;50.014;8.352;2023-05-10T02:43:40;13.60;99.90
28761;DHT22;15917;50.014;8.352;2023-05-10T02:46:06;13.60;99.90
28761;DHT22;15917;50.014;8.352;2023-05-10T02:48:31;13.60;99.90
28761;DHT22;15917;50.014;8.352;2023-05-10T02:51:03;13.60;99.90
28761;DHT22;15917;50.014;8.352;2023-05-10T02:53:31;13.60;99.90
28761;DHT22;15917;50.014;8.352;2023-05-10T02:56:05;13.60;99.90
28761;DHT22;15917;50.014;8.352;2023-05-10T02:58:34;13.60;99.90
28761;DHT22;15917;50.014;8.352;2023-05-10T03:01:00;13.70;99.90
28761;DHT22;15917;50.014;8.352;2023-05-10T03:03:26;13.70;99.90
28761;DHT22;15917;50.014;8.352;2023-05-10T03:05:52;13.70;99.90
28761;DHT22;15917;50.014;8.352;2023-05-10T03:08:22;13.70;99.90
28761;DHT22;15917;50.014;8.352;2023-05-10T03:10:55;13.70;99.90
28761;DHT22;15917;50.014;8.352;2023-05-10T03:13:48;13.70;99.90
28761;DHT22;15917;50.014;8.352;2023-05-10T03:16:27;13.70;99.90
28761;DHT22;15917;50.014;8.352;2023-05-10T03:19:12;13.70;99.90
28761;DHT22;15917;50.014;8.352;2023-05-10T03:21:47;13.70;99.90
28761;DHT22;15917;50.014;8.352;2023-05-10T03:24:16;13.70;99.90
28761;DHT22;15917;50.014;8.352;2023-05-10T03:26:46;13.70;99.90
28761;DHT22;15917;50.014;8.352;2023-05-10T03:29:17;13.70;99.90
28761;DHT22;15917;50.014;8.352;2023-05-10T03:31:42;13.80;99.90
28761;DHT22;15917;50.014;8.352;2023-05-10T03:34:08;13.80;99.90
28761;DHT22;15917;50.014;8.352;2023-05-10T03:36:34;13.80;99.90
28761;DHT22;15917;50.014;8.352;2023-05-10T03:39:00;13.80;99.90
28761;DHT22;15917;50.014;8.352;2023-05-10T03:41:26;13.80;99.90
28761;DHT22;15917;50.014;8.352;2023-05-10T03:43:53;13.80;99.90
28761;DHT22;15917;50.014;8.352;2023-05-10T03:46:18;13.70;99.90
28761;DHT22;15917;50.014;8.352;2023-05-10T03:48:44;13.80;99.90
28761;DHT22;15917;50.014;8.352;2023-05-10T03:51:10;13.70;99.90
28761;DHT22;15917;50.014;8.352;2023-05-10T03:53:36;13.80;99.90
28761;DHT22;15917;50.014;8.352;2023-05-10T03:56:02;13.70;99.90
28761;DHT22;15917;50.014;8.352;2023-05-10T03:58:28;13.70;99.90
28761;DHT22;15917;50.014;8.352;2023-05-10T04:00:54;13.70;99.90
28761;DHT22;15917;50.014;8.352;2023-05-10T04:03:19;13.70;99.90
28761;DHT22;15917;50.014;8.352;2023-05-10T04:05:45;13.70;99.90
28761;DHT22;15917;50.014;8.352;2023-05-10T04:08:11;13.80;99.90
28761;DHT22;15917;50.014;8.352;2023-05-10T04:10:37;13.70;99.90
28761;DHT22;15917;50.014;8.352;2023-05-10T04:13:02;13.70;99.90
28761;DHT22;15917;50.014;8.352;2023-05-10T04:15:28;13.80;99.90
28761;DHT22;15917;50.014;8.352;2023-05-10T04:17:53;13.70;99.90
28761;DHT22;15917;50.014;8.352;2023-05-10T04:20:19;13.80;99.90
28761;DHT22;15917;50.014;8.352;2023-05-10T04:22:45;13.70;99.90
28761;DHT22;15917;50.014;8.352;2023-05-10T04:25:11;13.70;99.90
28761;DHT22;15917;50.014;8.352;2023-05-10T04:27:36;13.70;99.90
28761;DHT22;15917;50.014;8.352;2023-05-10T04:30:02;13.70;99.90
28761;DHT22;15917;50.014;8.352;2023-05-10T04:32:28;13.80;99.90
28761;DHT22;15917;50.014;8.352;2023-05-10T04:34:54;13.80;99.90
28761;DHT22;15917;50.014;8.352;2023-05-10T04:37:20;13.70;99.90
28761;DHT22;15917;50.014;8.352;2023-05-10T04:39:46;13.70;99.90
28761;DHT22;15917;50.014;8.352;2023-05-10T04:42:12;13.70;99.90
28761;DHT22;15917;50.014;8.352;2023-05-10T04:44:40;13.70;99.90
28761;DHT22;15917;50.014;8.352;2023-05-10T04:47:06;13.70;99.90
28761;DHT22;15917;50.014;8.352;2023-05-10T04:49:31;13.70;99.90
28761;DHT22;15917;50.014;8.352;2023-05-10T04:51:57;13.80;99.90
28761;DHT22;15917;50.014;8.352;2023-05-10T04:54:23;13.80;99.90
28761;DHT22;15917;50.014;8.352;2023-05-10T04:56:49;13.80;99.90
28761;DHT22;15917;50.014;8.352;2023-05-10T04:59:14;13.80;99.90
28761;DHT22;15917;50.014;8.352;2023-05-10T05:01:40;13.80;99.90
28761;DHT22;15917;50.014;8.352;2023-05-10T05:04:05;13.80;99.90
28761;DHT22;15917;50.014;8.352;2023-05-10T05:06:32;13.80;99.90
28761;DHT22;15917;50.014;8.352;2023-05-10T05:08:57;13.80;99.90
28761;DHT22;15917;50.014;8.352;2023-05-10T05:11:23;13.80;99.90
28761;DHT22;15917;50.014;8.352;2023-05-10T05:13:49;13.80;99.90
28761;DHT22;15917;50.014;8.352;2023-05-10T05:16:14;13.80;99.90
28761;DHT22;15917;50.014;8.352;2023-05-10T05:18:40;13.80;99.90
28761;DHT22;15917;50.014;8.352;2023-05-10T05:21:16;13.80;99.90
28761;DHT22;15917;50.014;8.352;2023-05-10T05:23:42;13.80;99.90
28761;DHT22;15917;50.014;8.352;2023-05-10T05:26:08;13.80;99.90
28761;DHT22;15917;50.014;8.352;2023-05-10T05:28:33;13.80;99.90
28761;DHT22;15917;50.014;8.352;2023-05-10T05:31:05;13.80;99.90
28761;DHT22;15917;50.014;8.352;2023-05-10T05:33:31;13.80;99.90
28761;DHT22;15917;50.014;8.352;2023-05-10T05:35:57;13.90;99.90
28761;DHT22;15917;50.014;8.352;2023-05-10T05:38:22;14.00;99.90
28761;DHT22;15917;50.014;8.352;2023-05-10T05:40:49;14.00;99.90
28761;DHT22;15917;50.014;8.352;2023-05-10T05:43:14;14.00;99.90
28761;DHT22;15917;50.014;8.352;2023-05-10T05:45:40;14.00;99.90
28761;DHT22;15917;50.014;8.352;2023-05-10T05:48:05;13.90;99.90
28761;DHT22;15917;50.014;8.352;2023-05-10T05:50:31;14.00;99.90
28761;DHT22;15917;50.014;8.352;2023-05-10T05:52:56;14.00;99.90
28761;DHT22;15917;50.014;8.352;2023-05-10T05:55:22;14.00;99.90
28761;DHT22;15917;50.014;8.352;2023-05-10T05:57:49;14.00;99.90
28761;DHT22;15917;50.014;8.352;2023-05-10T06:00:15;14.10;99.90
28761;DHT22;15917;50.014;8.352;2023-05-10T06:02:41;14.10;99.90
28761;DHT22;15917;50.014;8.352;2023-05-10T06:05:07;14.10;99.90
28761;DHT22;15917;50.014;8.352;2023-05-10T06:07:33;14.10;99.90
28761;DHT22;15917;50.014;8.352;2023-05-10T06:09:58;14.20;99.90
28761;DHT22;15917;50.014;8.352;2023-05-10T06:12:24;14.10;99.90
28761;DHT22;15917;50.014;8.352;2023-05-10T06:14:50;14.10;99.90
28761;DHT22;15917;50.014;8.352;2023-05-10T06:17:15;14.20;99.90
28761;DHT22;15917;50.014;8.352;2023-05-10T06:19:41;14.60;99.90
28761;DHT22;15917;50.014;8.352;2023-05-10T06:22:06;14.70;99.90
28761;DHT22;15917;50.014;8.352;2023-05-10T06:24:32;14.80;99.90
28761;DHT22;15917;50.014;8.352;2023-05-10T06:26:58;14.90;99.90
28761;DHT22;15917;50.014;8.352;2023-05-10T06:29:25;15.00;99.90
28761;DHT22;15917;50.014;8.352;2023-05-10T06:31:51;15.00;99.90
28761;DHT22;15917;50.014;8.352;2023-05-10T06:34:16;15.10;99.90
28761;DHT22;15917;50.014;8.352;2023-05-10T06:36:42;15.10;99.90
28761;DHT22;15917;50.014;8.352;2023-05-10T06:39:08;15.00;99.90
28761;DHT22;15917;50.014;8.352;2023-05-10T06:41:33;15.10;99.90
28761;DHT22;15917;50.014;8.352;2023-05-10T06:43:59;15.10;99.90
28761;DHT22;15917;50.014;8.352;2023-05-10T06:46:24;15.20;99.90
28761;DHT22;15917;50.014;8.352;2023-05-10T06:48:50;15.20;99.90
28761;DHT22;15917;50.014;8.352;2023-05-10T06:51:15;15.30;99.90
28761;DHT22;15917;50.014;8.352;2023-05-10T06:53:41;15.30;99.90
28761;DHT22;15917;50.014;8.352;2023-05-10T06:56:07;15.30;99.90
28761;DHT22;15917;50.014;8.352;2023-05-10T06:58:32;15.30;99.90
28761;DHT22;15917;50.014;8.352;2023-05-10T07:01:03;15.40;99.90
28761;DHT22;15917;50.014;8.352;2023-05-10T07:03:29;15.40;99.90
28761;DHT22;15917;50.014;8.352;2023-05-10T07:06:00;15.40;99.90
28761;DHT22;15917;50.014;8.352;2023-05-10T07:08:29;15.40;99.90
28761;DHT22;15917;50.014;8.352;2023-05-10T07:11:00;15.50;99.90
28761;DHT22;15917;50.014;8.352;2023-05-10T07:13:26;15.60;99.90
28761;DHT22;15917;50.014;8.352;2023-05-10T07:15:51;15.60;99.90
28761;DHT22;15917;50.014;8.352;2023-05-10T07:18:17;15.70;99.90
28761;DHT22;15917;50.014;8.352;2023-05-10T07:20:43;15.70;99.90
28761;DHT22;15917;50.014;8.352;2023-05-10T07:23:08;15.70;99.90
28761;DHT22;15917;50.014;8.352;2023-05-10T07:25:34;15.70;99.90
28761;DHT22;15917;50.014;8.352;2023-05-10T07:27:59;15.80;99.90
28761;DHT22;15917;50.014;8.352;2023-05-10T07:30:25;15.90;99.90
28761;DHT22;15917;50.014;8.352;2023-05-10T07:32:50;15.90;99.90
28761;DHT22;15917;50.014;8.352;2023-05-10T07:35:16;16.00;99.90
28761;DHT22;15917;50.014;8.352;2023-05-10T07:37:42;15.90;99.90
28761;DHT22;15917;50.014;8.352;2023-05-10T07:40:08;15.90;99.90
28761;DHT22;15917;50.014;8.352;2023-05-10T07:42:34;15.90;99.90
28761;DHT22;15917;50.014;8.352;2023-05-10T07:44:59;15.90;99.90
28761;DHT22;15917;50.014;8.352;2023-05-10T07:47:25;15.90;99.90
28761;DHT22;15917;50.014;8.352;2023-05-10T07:49:51;16.00;99.90
28761;DHT22;15917;50.014;8.352;2023-05-10T07:52:16;16.00;99.90
28761;DHT22;15917;50.014;8.352;2023-05-10T07:54:42;16.20;99.90
28761;DHT22;15917;50.014;8.352;2023-05-10T07:57:08;16.30;99.90
28761;DHT22;15917;50.014;8.352;2023-05-10T07:59:33;16.40;99.90
28761;DHT22;15917;50.014;8.352;2023-05-10T08:01:59;16.50;99.90
28761;DHT22;15917;50.014;8.352;2023-05-10T08:04:24;16.60;99.90
28761;DHT22;15917;50.014;8.352;2023-05-10T08:06:50;16.60;99.90
28761;DHT22;15917;50.014;8.352;2023-05-10T08:09:16;16.60;99.90
28761;DHT22;15917;50.014;8.352;2023-05-10T08:11:42;16.60;99.90
28761;DHT22;15917;50.014;8.352;2023-05-10T08:14:08;16.60;99.90
28761;DHT22;15917;50.014;8.352;2023-05-10T08:16:34;16.50;99.90
28761;DHT22;15917;50.014;8.352;2023-05-10T08:18:59;16.40;99.90
28761;DHT22;15917;50.014;8.352;2023-05-10T08:21:25;16.40;99.90
28761;DHT22;15917;50.014;8.352;2023-05-10T08:23:51;16.40;99.90
28761;DHT22;15917;50.014;8.352;2023-05-10T08:26:17;16.40;99.90
28761;DHT22;15917;50.014;8.352;2023-05-10T08:28:42;16.50;99.90
28761;DHT22;15917;50.014;8.352;2023-05-10T08:31:08;16.50;99.90
28761;DHT22;15917;50.014;8.352;2023-05-10T08:33:34;16.60;99.90
28761;DHT22;15917;50.014;8.352;2023-05-10T08:35:59;16.60;99.90
28761;DHT22;15917;50.014;8.352;2023-05-10T08:38:25;16.60;99.90
28761;DHT22;15917;50.014;8.352;2023-05-10T08:40:53;16.60;99.90
28761;DHT22;15917;50.014;8.352;2023-05-10T08:43:23;16.60;99.90
28761;DHT22;15917;50.014;8.352;2023-05-10T08:45:51;16.70;99.90
28761;DHT22;15917;50.014;8.352;2023-05-10T08:48:18;16.70;99.90
28761;DHT22;15917;50.014;8.352;2023-05-10T08:50:45;16.80;99.90
28761;DHT22;15917;50.014;8.352;2023-05-10T08:53:13;16.90;99.90
28761;DHT22;15917;50.014;8.352;2023-05-10T08:55:39;16.90;99.90
28761;DHT22;15917;50.014;8.352;2023-05-10T08:58:08;17.00;99.90
28761;DHT22;15917;50.014;8.352;2023-05-10T09:00:34;17.00;99.90
28761;DHT22;15917;50.014;8.352;2023-05-10T09:03:02;16.90;99.90
28761;DHT22;15917;50.014;8.352;2023-05-10T09:05:28;16.80;99.90
28761;DHT22;15917;50.014;8.352;2023-05-10T09:07:54;16.50;99.90
28761;DHT22;15917;50.014;8.352;2023-05-10T09:10:20;16.30;99.90
28761;DHT22;15917;50.014;8.352;2023-05-10T09:12:46;16.10;99.90
28761;DHT22;15917;50.014;8.352;2023-05-10T09:15:15;16.00;99.90
28761;DHT22;15917;50.014;8.352;2023-05-10T09:17:41;16.00;99.90
28761;DHT22;15917;50.014;8.352;2023-05-10T09:20:07;16.10;99.90
28761;DHT22;15917;50.014;8.352;2023-05-10T09:22:34;16.20;99.90
28761;DHT22;15917;50.014;8.352;2023-05-10T09:25:14;16.20;99.90
28761;DHT22;15917;50.014;8.352;2023-05-10T09:27:43;16.20;99.90
28761;DHT22;15917;50.014;8.352;2023-05-10T09:30:10;16.30;99.90
28761;DHT22;15917;50.014;8.352;2023-05-10T09:32:42;16.30;99.90
28761;DHT22;15917;50.014;8.352;2023-05-10T09:35:13;16.40;99.90
28761;DHT22;15917;50.014;8.352;2023-05-10T09:37:40;16.30;99.90
28761;DHT22;15917;50.014;8.352;2023-05-10T09:40:22;16.30;99.90
28761;DHT22;15917;50.014;8.352;2023-05-10T09:45:25;16.30;99.90
28761;DHT22;15917;50.014;8.352;2023-05-10T09:47:52;16.20;99.90
28761;DHT22;15917;50.014;8.352;2023-05-10T09:50:19;15.90;99.90
28761;DHT22;15917;50.014;8.352;2023-05-10T09:52:49;15.80;99.90
28761;DHT22;15917;50.014;8.352;2023-05-10T09:55:16;15.70;99.90
28761;DHT22;15917;50.014;8.352;2023-05-10T09:57:42;15.60;99.90
28761;DHT22;15917;50.014;8.352;2023-05-10T10:00:08;15.70;99.90
28761;DHT22;15917;50.014;8.352;2023-05-10T10:02:41;15.80;99.90
28761;DHT22;15917;50.014;8.352;2023-05-10T10:05:07;15.90;99.90
28761;DHT22;15917;50.014;8.352;2023-05-10T10:07:34;16.10;99.90
28761;DHT22;15917;50.014;8.352;2023-05-10T10:10:00;16.30;99.90
28761;DHT22;15917;50.014;8.352;2023-05-10T10:12:26;16.40;99.90
28761;DHT22;15917;50.014;8.352;2023-05-10T10:14:52;16.80;99.90
28761;DHT22;15917;50.014;8.352;2023-05-10T10:17:19;17.10;99.90
28761;DHT22;15917;50.014;8.352;2023-05-10T10:19:45;17.40;99.90
28761;DHT22;15917;50.014;8.352;2023-05-10T10:22:11;17.60;99.90
28761;DHT22;15917;50.014;8.352;2023-05-10T10:24:38;17.70;99.90
28761;DHT22;15917;50.014;8.352;2023-05-10T10:27:14;17.80;99.90
28761;DHT22;15917;50.014;8.352;2023-05-10T10:29:50;17.70;99.90
28761;DHT22;15917;50.014;8.352;2023-05-10T10:34:46;17.60;99.90
28761;DHT22;15917;50.014;8.352;2023-05-10T10:37:12;17.60;99.90
28761;DHT22;15917;50.014;8.352;2023-05-10T10:39:37;17.90;99.90
28761;DHT22;15917;50.014;8.352;2023-05-10T10:42:04;18.10;99.90
28761;DHT22;15917;50.014;8.352;2023-05-10T10:50:04;18.80;99.90
28761;DHT22;15917;50.014;8.352;2023-05-10T10:52:34;18.70;99.90
28761;DHT22;15917;50.014;8.352;2023-05-10T10:57:30;18.60;99.90
28761;DHT22;15917;50.014;8.352;2023-05-10T11:05:45;18.90;99.90
28761;DHT22;15917;50.014;8.352;2023-05-10T11:08:31;18.50;99.90
28761;DHT22;15917;50.014;8.352;2023-05-10T11:13:46;17.90;99.90
28761;DHT22;15917;50.014;8.352;2023-05-10T11:19:01;17.60;99.90
28761;DHT22;15917;50.014;8.352;2023-05-10T11:21:28;17.50;99.90
28761;DHT22;15917;50.014;8.352;2023-05-10T11:23:58;17.50;99.90
28761;DHT22;15917;50.014;8.352;2023-05-10T11:26:30;17.50;99.90
28761;DHT22;15917;50.014;8.352;2023-05-10T11:28:56;17.60;99.90
28761;DHT22;15917;50.014;8.352;2023-05-10T11:31:22;17.70;99.90
28761;DHT22;15917;50.014;8.352;2023-05-10T11:33:53;17.80;99.90
28761;DHT22;15917;50.014;8.352;2023-05-10T11:36:21;18.00;99.90
28761;DHT22;15917;50.014;8.352;2023-05-10T11:38:47;18.20;99.90
28761;DHT22;15917;50.014;8.352;2023-05-10T11:41:14;18.30;99.90
28761;DHT22;15917;50.014;8.352;2023-05-10T11:43:41;18.50;99.90
28761;DHT22;15917;50.014;8.352;2023-05-10T11:46:11;18.80;99.90
28761;DHT22;15917;50.014;8.352;2023-05-10T11:48:41;18.90;99.90
28761;DHT22;15917;50.014;8.352;2023-05-10T11:51:09;19.30;99.90
28761;DHT22;15917;50.014;8.352;2023-05-10T11:53:35;19.40;99.90
28761;DHT22;15917;50.014;8.352;2023-05-10T11:56:08;19.60;99.90
28761;DHT22;15917;50.014;8.352;2023-05-10T11:58:35;19.80;99.90
28761;DHT22;15917;50.014;8.352;2023-05-10T12:01:01;19.80;99.90
28761;DHT22;15917;50.014;8.352;2023-05-10T12:03:28;19.50;99.90
28761;DHT22;15917;50.014;8.352;2023-05-10T12:05:55;19.40;99.90
28761;DHT22;15917;50.014;8.352;2023-05-10T12:08:24;19.50;99.90
28761;DHT22;15917;50.014;8.352;2023-05-10T12:10:50;19.50;99.90
28761;DHT22;15917;50.014;8.352;2023-05-10T12:13:17;19.60;99.90
28761;DHT22;15917;50.014;8.352;2023-05-10T12:15:43;19.50;99.90
28761;DHT22;15917;50.014;8.352;2023-05-10T12:18:14;19.40;99.90
28761;DHT22;15917;50.014;8.352;2023-05-10T12:20:40;19.20;99.90
28761;DHT22;15917;50.014;8.352;2023-05-10T12:23:09;19.00;99.90
28761;DHT22;15917;50.014;8.352;2023-05-10T12:25:38;18.90;99.90
28761;DHT22;15917;50.014;8.352;2023-05-10T12:28:06;18.70;99.90
28761;DHT22;15917;50.014;8.352;2023-05-10T12:30:33;18.50;99.90
28761;DHT22;15917;50.014;8.352;2023-05-10T12:33:18;18.40;99.90
28761;DHT22;15917;50.014;8.352;2023-05-10T12:35:51;18.50;99.90
28761;DHT22;15917;50.014;8.352;2023-05-10T12:38:32;18.80;99.90
28761;DHT22;15917;50.014;8.352;2023-05-10T12:41:00;18.90;99.90
28761;DHT22;15917;50.014;8.352;2023-05-10T12:43:26;18.90;99.90
28761;DHT22;15917;50.014;8.352;2023-05-10T12:45:52;18.80;99.90
28761;DHT22;15917;50.014;8.352;2023-05-10T12:48:18;18.80;99.90
28761;DHT22;15917;50.014;8.352;2023-05-10T12:50:45;18.90;99.90
28761;DHT22;15917;50.014;8.352;2023-05-10T12:53:11;19.00;99.90
28761;DHT22;15917;50.014;8.352;2023-05-10T12:55:36;19.10;99.90
28761;DHT22;15917;50.014;8.352;2023-05-10T12:58:02;19.10;99.90
28761;DHT22;15917;50.014;8.352;2023-05-10T13:00:27;19.00;99.90
28761;DHT22;15917;50.014;8.352;2023-05-10T13:02:53;18.90;99.90
28761;DHT22;15917;50.014;8.352;2023-05-10T13:05:19;18.70;99.90
28761;DHT22;15917;50.014;8.352;2023-05-10T13:07:45;18.50;99.90
28761;DHT22;15917;50.014;8.352;2023-05-10T13:10:10;18.30;99.90
28761;DHT22;15917;50.014;8.352;2023-05-10T13:12:36;18.30;99.90
28761;DHT22;15917;50.014;8.352;2023-05-10T13:15:02;18.30;99.90
28761;DHT22;15917;50.014;8.352;2023-05-10T13:17:29;18.30;99.90
28761;DHT22;15917;50.014;8.352;2023-05-10T13:19:54;18.30;99.90
28761;DHT22;15917;50.014;8.352;2023-05-10T13:22:20;18.30;99.90
28761;DHT22;15917;50.014;8.352;2023-05-10T13:24:46;18.20;99.90
28761;DHT22;15917;50.014;8.352;2023-05-10T13:27:11;18.30;99.90
28761;DHT22;15917;50.014;8.352;2023-05-10T13:29:37;18.30;99.90
28761;DHT22;15917;50.014;8.352;2023-05-10T13:32:02;18.70;99.90
28761;DHT22;15917;50.014;8.352;2023-05-10T13:34:28;19.10;99.90
28761;DHT22;15917;50.014;8.352;2023-05-10T13:36:54;19.40;99.90
28761;DHT22;15917;50.014;8.352;2023-05-10T13:39:21;19.80;99.90
28761;DHT22;15917;50.014;8.352;2023-05-10T13:41:47;19.90;99.90
28761;DHT22;15917;50.014;8.352;2023-05-10T13:44:14;19.90;99.90
28761;DHT22;15917;50.014;8.352;2023-05-10T13:46:40;20.10;99.90
28761;DHT22;15917;50.014;8.352;2023-05-10T13:49:06;20.10;99.90
28761;DHT22;15917;50.014;8.352;2023-05-10T13:51:33;20.00;99.90
28761;DHT22;15917;50.014;8.352;2023-05-10T13:53:59;20.10;99.90
28761;DHT22;15917;50.014;8.352;2023-05-10T13:56:25;20.30;99.90
28761;DHT22;15917;50.014;8.352;2023-05-10T13:58:50;20.30;99.90
28761;DHT22;15917;50.014;8.352;2023-05-10T14:01:16;20.40;99.90
28761;DHT22;15917;50.014;8.352;2023-05-10T14:03:42;20.20;99.90
28761;DHT22;15917;50.014;8.352;2023-05-10T14:06:08;20.20;99.90
28761;DHT22;15917;50.014;8.352;2023-05-10T14:08:34;20.20;99.90
28761;DHT22;15917;50.014;8.352;2023-05-10T14:11:01;20.20;99.90
28761;DHT22;15917;50.014;8.352;2023-05-10T14:13:27;20.10;99.90
28761;DHT22;15917;50.014;8.352;2023-05-10T14:15:54;20.20;99.90
28761;DHT22;15917;50.014;8.352;2023-05-10T14:18:20;20.30;99.90
28761;DHT22;15917;50.014;8.352;2023-05-10T14:20:46;20.20;99.90
28761;DHT22;15917;50.014;8.352;2023-05-10T14:23:12;20.40;99.90
28761;DHT22;15917;50.014;8.352;2023-05-10T14:25:39;20.50;99.90
28761;DHT22;15917;50.014;8.352;2023-05-10T14:28:05;20.40;99.90
28761;DHT22;15917;50.014;8.352;2023-05-10T14:30:31;20.30;99.90
28761;DHT22;15917;50.014;8.352;2023-05-10T14:32:57;20.10;99.90
28761;DHT22;15917;50.014;8.352;2023-05-10T14:35:23;20.00;99.90
28761;DHT22;15917;50.014;8.352;2023-05-10T14:37:49;19.90;99.90
28761;DHT22;15917;50.014;8.352;2023-05-10T14:40:15;19.90;99.90
28761;DHT22;15917;50.014;8.352;2023-05-10T14:42:42;20.00;99.90
28761;DHT22;15917;50.014;8.352;2023-05-10T14:45:09;20.20;99.90
28761;DHT22;15917;50.014;8.352;2023-05-10T14:47:35;20.40;99.90
28761;DHT22;15917;50.014;8.352;2023-05-10T14:50:00;20.40;99.90
28761;DHT22;15917;50.014;8.352;2023-05-10T14:52:26;20.40;99.90
28761;DHT22;15917;50.014;8.352;2023-05-10T14:54:53;20.40;99.90
28761;DHT22;15917;50.014;8.352;2023-05-10T14:57:18;20.40;99.90
28761;DHT22;15917;50.014;8.352;2023-05-10T14:59:44;20.40;99.90
28761;DHT22;15917;50.014;8.352;2023-05-10T15:02:10;20.30;99.90
28761;DHT22;15917;50.014;8.352;2023-05-10T15:04:36;20.40;99.90
28761;DHT22;15917;50.014;8.352;2023-05-10T15:07:01;20.30;99.90
28761;DHT22;15917;50.014;8.352;2023-05-10T15:09:27;20.20;99.90
28761;DHT22;15917;50.014;8.352;2023-05-10T15:11:53;20.00;99.90
28761;DHT22;15917;50.014;8.352;2023-05-10T15:14:19;20.10;99.90
28761;DHT22;15917;50.014;8.352;2023-05-10T15:16:44;20.10;99.90
28761;DHT22;15917;50.014;8.352;2023-05-10T15:19:10;20.10;99.90
28761;DHT22;15917;50.014;8.352;2023-05-10T15:21:36;20.00;99.90
28761;DHT22;15917;50.014;8.352;2023-05-10T15:24:07;19.80;99.90
28761;DHT22;15917;50.014;8.352;2023-05-10T15:26:33;19.90;99.90
28761;DHT22;15917;50.014;8.352;2023-05-10T15:28:58;19.80;99.90
28761;DHT22;15917;50.014;8.352;2023-05-10T15:31:24;19.70;99.90
28761;DHT22;15917;50.014;8.352;2023-05-10T15:33:50;19.70;99.90
28761;DHT22;15917;50.014;8.352;2023-05-10T15:36:16;19.70;99.90
28761;DHT22;15917;50.014;8.352;2023-05-10T15:38:43;19.80;99.90
28761;DHT22;15917;50.014;8.352;2023-05-10T15:41:09;20.00;99.90
28761;DHT22;15917;50.014;8.352;2023-05-10T15:43:34;20.00;99.90
28761;DHT22;15917;50.014;8.352;2023-05-10T15:46:00;19.90;99.90
28761;DHT22;15917;50.014;8.352;2023-05-10T15:48:26;19.90;99.90
28761;DHT22;15917;50.014;8.352;2023-05-10T15:50:52;19.90;99.90
28761;DHT22;15917;50.014;8.352;2023-05-10T15:53:18;20.00;99.90
28761;DHT22;15917;50.014;8.352;2023-05-10T15:55:43;20.00;99.90
28761;DHT22;15917;50.014;8.352;2023-05-10T15:58:09;20.00;99.90
28761;DHT22;15917;50.014;8.352;2023-05-10T16:00:35;19.70;99.90
28761;DHT22;15917;50.014;8.352;2023-05-10T16:03:01;19.60;99.90
28761;DHT22;15917;50.014;8.352;2023-05-10T16:05:27;19.60;99.90
28761;DHT22;15917;50.014;8.352;2023-05-10T16:07:56;19.70;99.90
28761;DHT22;15917;50.014;8.352;2023-05-10T16:10:22;19.60;99.90